Time;durP1;ratioP1;P1;durP2;ratioP2;P2;SDS_P1;SDS_P2;PMS_P1;PMS_P2;Temp;Humidity;BMP_temperature;BMP_pressure;BME280_temperature;BME280_humidity;BME280_pressure;Samples;Min_cycle;Max_cycle;Signal;HPM_P1;HPM_P2
2024/04/20 00:00:34;;;;;;;7.70;2.20;;;;;;;6.25;100.00;101620.44;5508547;26;20207;-38
2024/04/20 00:02:59;;;;;;;6.23;2.00;;;;;;;6.33;100.00;101643.69;5508397;26;19994;-38
2024/04/20 00:05:24;;;;;;;8.17;2.10;;;;;;;6.30;100.00;101650.28;5499115;26;20005;-38
2024/04/20 00:07:50;;;;;;;8.67;2.10;;;;;;;6.30;100.00;101646.75;5491972;26;20009;-38
2024/04/20 00:10:17;;;;;;;7.00;2.10;;;;;;;6.30;100.00;101644.91;5492088;26;20004;-38
2024/04/20 00:12:43;;;;;;;7.05;2.03;;;;;;;6.31;100.00;101651.09;5492161;26;20363;-38
2024/04/20 00:15:08;;;;;;;8.90;2.35;;;;;;;6.21;100.00;101639.78;5492202;26;20002;-38
2024/04/20 00:17:36;;;;;;;7.22;1.75;;;;;;;6.32;100.00;101650.09;5491787;26;19998;-38
2024/04/20 00:20:02;;;;;;;9.57;2.17;;;;;;;6.30;100.00;101636.84;5492114;26;20043;-38
2024/04/20 00:22:28;;;;;;;6.78;1.73;;;;;;;6.35;100.00;101657.78;5491962;26;20006;-38
2024/04/20 00:24:53;;;;;;;9.00;2.00;;;;;;;6.33;100.00;101657.13;5492371;26;20002;-38
2024/04/20 00:27:18;;;;;;;10.57;2.27;;;;;;;6.29;100.00;101653.94;5491995;26;20215;-38
2024/04/20 00:29:44;;;;;;;13.23;3.03;;;;;;;6.25;100.00;101650.00;5492204;26;20005;-38
2024/04/20 00:32:09;;;;;;;7.30;2.13;;;;;;;6.18;100.00;101643.66;5491826;26;20255;-38
2024/04/20 00:34:36;;;;;;;9.10;2.20;;;;;;;6.24;100.00;101663.59;5491759;26;20219;-38
2024/04/20 00:37:03;;;;;;;9.35;2.20;;;;;;;6.24;100.00;101664.41;5491362;26;20358;-38
2024/04/20 00:39:29;;;;;;;7.90;2.25;;;;;;;6.18;100.00;101667.84;5491365;26;19994;-38
2024/04/20 00:41:54;;;;;;;6.30;1.90;;;;;;;6.17;100.00;101666.16;5491785;26;19994;-38
2024/04/20 00:44:20;;;;;;;5.53;1.77;;;;;;;6.14;100.00;101671.91;5491741;26;20222;-38
2024/04/20 00:46:49;;;;;;;9.35;3.35;;;;;;;6.15;100.00;101678.97;5491354;26;20009;-38
2024/04/20 00:49:15;;;;;;;4.25;1.30;;;;;;;6.13;100.00;101676.44;5491731;26;19994;-38
2024/04/20 00:51:42;;;;;;;8.27;1.85;;;;;;;6.10;100.00;101675.94;5491706;26;20030;-38
2024/04/20 00:54:08;;;;;;;6.85;1.88;;;;;;;6.08;100.00;101668.09;5491990;26;20415;-38
2024/04/20 00:56:34;;;;;;;;;;;;;;;6.16;100.00;101680.63;5492540;26;19994;-38
2024/04/20 00:59:00;;;;;;;4.28;1.20;;;;;;;6.03;100.00;101677.72;5492536;26;20401;-38
2024/04/20 01:01:26;;;;;;;4.68;1.40;;;;;;;6.03;100.00;101680.38;5491478;26;19990;-38
2024/04/20 01:03:51;;;;;;;5.88;1.48;;;;;;;6.04;100.00;101690.94;5492377;26;20005;-38
2024/04/20 01:06:17;;;;;;;3.43;1.00;;;;;;;5.99;100.00;101689.81;5492017;26;20001;-38
2024/04/20 01:08:43;;;;;;;3.78;1.20;;;;;;;5.99;100.00;101692.50;5491954;26;19990;-38
2024/04/20 01:11:09;;;;;;;3.80;1.00;;;;;;;5.93;100.00;101683.31;5492023;26;20383;-38
2024/04/20 01:13:34;;;;;;;4.50;1.10;;;;;;;5.88;100.00;101681.16;5491226;26;19989;-38
2024/04/20 01:16:00;;;;;;;6.67;1.33;;;;;;;5.94;100.00;101695.72;5491085;26;19997;-38
2024/04/20 01:18:25;;;;;;;4.47;1.60;;;;;;;5.91;100.00;101696.06;5490732;26;20002;-38
2024/04/20 01:20:51;;;;;;;5.00;1.20;;;;;;;5.84;100.00;101692.41;5491860;26;19990;-38
2024/04/20 01:23:16;;;;;;;6.97;1.35;;;;;;;5.88;100.00;101694.56;5491575;26;20005;-38
2024/04/20 01:25:49;;;;;;;5.45;1.40;;;;;;;5.91;100.00;101696.94;5492036;26;20422;-38
2024/04/20 01:28:14;;;;;;;5.32;1.30;;;;;;;5.89;100.00;101700.75;5491964;26;20450;-38
2024/04/20 01:30:40;;;;;;;6.45;1.45;;;;;;;5.84;100.00;101698.63;5491708;26;20005;-38
2024/04/20 01:33:05;;;;;;;7.03;1.70;;;;;;;5.86;100.00;101704.66;5491255;26;19994;-38
2024/04/20 01:35:31;;;;;;;11.00;2.35;;;;;;;5.84;100.00;101687.88;5491067;26;19995;-39
2024/04/20 01:37:56;;;;;;;7.97;2.05;;;;;;;5.87;100.00;101706.31;5490633;26;20017;-39
2024/04/20 01:40:22;;;;;;;8.47;1.83;;;;;;;5.93;100.00;101708.31;5491235;26;19990;-39
2024/04/20 01:42:47;;;;;;;6.77;2.10;;;;;;;5.93;100.00;101702.94;5490610;26;19998;-39
2024/04/20 01:45:12;;;;;;;9.33;1.93;;;;;;;5.81;100.00;101680.22;5491576;26;20253;-39
2024/04/20 01:47:39;;;;;;;4.67;1.40;;;;;;;5.99;100.00;101713.97;5490944;26;19998;-39
2024/04/20 01:50:05;;;;;;;6.25;1.70;;;;;;;5.93;100.00;101705.63;5490857;26;20001;-39
2024/04/20 01:52:30;;;;;;;5.40;1.40;;;;;;;5.96;100.00;101715.19;5490793;26;19998;-39
2024/04/20 01:54:56;;;;;;;7.37;1.70;;;;;;;5.96;100.00;101714.38;5490969;26;20302;-39
2024/04/20 01:57:21;;;;;;;7.57;2.40;;;;;;;5.97;100.00;101716.84;5490770;26;19994;-39
2024/04/20 01:59:46;;;;;;;8.60;1.90;;;;;;;5.93;100.00;101721.75;5491162;26;20032;-39
2024/04/20 02:02:11;;;;;;;9.13;1.90;;;;;;;5.92;100.00;101717.38;5491260;26;20004;-39
2024/04/20 02:04:37;;;;;;;7.47;1.57;;;;;;;6.01;100.00;101728.09;5490939;26;20009;-39
2024/04/20 02:07:02;;;;;;;6.33;1.77;;;;;;;6.01;100.00;101728.09;5490913;26;19997;-39
2024/04/20 02:09:28;;;;;;;4.60;1.55;;;;;;;6.06;100.00;101739.13;5491112;26;19990;-39
2024/04/20 02:11:53;;;;;;;8.05;1.92;;;;;;;6.02;100.00;101730.56;5491147;26;20376;-39
2024/04/20 02:14:19;;;;;;;6.10;1.70;;;;;;;6.03;100.00;101726.88;5490981;26;20307;-38
2024/04/20 02:16:45;;;;;;;7.70;1.55;;;;;;;6.05;100.00;101735.59;5490778;26;20002;-38
2024/04/20 02:19:10;;;;;;;7.97;2.13;;;;;;;6.00;100.00;101742.50;5490548;26;20013;-38
2024/04/20 02:21:35;;;;;;;7.30;1.63;;;;;;;6.01;100.00;101750.38;5490493;26;20013;-38
2024/04/20 02:24:01;;;;;;;5.57;1.60;;;;;;;6.01;100.00;101739.66;5490664;26;19998;-38
2024/04/20 02:26:26;;;;;;;6.67;1.90;;;;;;;6.05;100.00;101746.34;5490346;26;20009;-38
2024/04/20 02:28:52;;;;;;;6.63;1.80;;;;;;;6.07;100.00;101743.47;5490361;26;20009;-38
2024/04/20 02:31:17;;;;;;;9.30;2.03;;;;;;;6.05;100.00;101740.97;5490578;26;20415;-38
2024/04/20 02:33:42;;;;;;;8.37;1.83;;;;;;;5.98;100.00;101739.16;5490962;26;20005;-39
2024/04/20 02:36:08;;;;;;;6.43;1.87;;;;;;;6.03;100.00;101752.88;5490470;26;19991;-39
2024/04/20 02:38:33;;;;;;;7.75;2.05;;;;;;;6.04;100.00;101749.19;5458008;26;20043;-39
2024/04/20 02:40:59;;;;;;;7.97;2.00;;;;;;;6.08;100.00;101755.88;5490195;26;20009;-39
2024/04/20 02:43:25;;;;;;;7.60;2.10;;;;;;;6.04;100.00;101762.59;5489595;26;20070;-39
2024/04/20 02:45:50;;;;;;;;;;;;;;;6.14;100.00;101760.53;5490458;26;20223;-39
2024/04/20 02:48:16;;;;;;;9.77;2.28;;;;;;;6.06;100.00;101757.91;5489768;26;19931;-39
2024/04/20 02:50:41;;;;;;;11.40;2.33;;;;;;;6.03;100.00;101750.19;5490115;26;20400;-38
2024/04/20 02:53:06;;;;;;;10.90;2.23;;;;;;;6.05;100.00;101748.16;5489259;26;20450;-38
2024/04/20 02:55:32;;;;;;;11.00;2.30;;;;;;;6.09;100.00;101761.06;5490085;26;19998;-38
2024/04/20 02:57:57;;;;;;;7.93;2.10;;;;;;;6.05;100.00;101772.31;5489684;26;19997;-38
2024/04/20 03:00:22;;;;;;;12.93;2.70;;;;;;;6.06;100.00;101768.66;5489989;26;20063;-39
2024/04/20 03:02:48;;;;;;;11.87;2.10;;;;;;;6.06;100.00;101776.72;5489239;26;20058;-38
2024/04/20 03:05:13;;;;;;;10.20;3.57;;;;;;;5.86;100.00;101789.72;5489915;26;19997;-38
2024/04/20 03:07:38;;;;;;;13.97;3.00;;;;;;;5.89;100.00;101778.63;5489838;26;19990;-39
2024/04/20 03:10:04;;;;;;;8.77;2.80;;;;;;;5.84;100.00;101773.78;5489415;26;20207;-38
2024/04/20 03:12:30;;;;;;;10.35;2.55;;;;;;;5.89;100.00;101779.44;5489365;26;19990;-38
2024/04/20 03:14:55;;;;;;;11.47;2.40;;;;;;;5.92;100.00;101778.31;5489963;26;20117;-38
2024/04/20 03:17:20;;;;;;;14.67;3.13;;;;;;;5.87;100.00;101786.84;5489361;26;19990;-38
2024/04/20 03:19:46;;;;;;;10.53;2.87;;;;;;;5.87;100.00;101794.91;5489563;26;20027;-38
2024/04/20 03:22:11;;;;;;;9.85;2.60;;;;;;;5.95;100.00;101794.03;5488941;26;19994;-38
2024/04/20 03:24:38;;;;;;;16.60;3.10;;;;;;;5.96;100.00;101795.72;5489503;26;20055;-38
2024/04/20 03:27:04;;;;;;;16.75;4.00;;;;;;;5.92;100.00;101797.94;5489120;26;20319;-38
2024/04/20 03:29:29;;;;;;;15.77;3.72;;;;;;;5.98;100.00;101804.44;5489003;26;19990;-38
2024/04/20 03:31:54;;;;;;;11.07;3.20;;;;;;;5.98;100.00;101800.91;5488963;26;20005;-38
2024/04/20 03:34:20;;;;;;;13.03;2.77;;;;;;;5.98;100.00;101807.13;5488979;26;20315;-38
2024/04/20 03:36:45;;;;;;;10.87;2.70;;;;;;;5.84;100.00;101792.56;5488944;26;19990;-38
2024/04/20 03:39:11;;;;;;;15.07;3.00;;;;;;;5.90;100.00;101807.13;5489611;26;20395;-38
2024/04/20 03:41:36;;;;;;;11.45;3.25;;;;;;;5.89;100.00;101814.34;5491809;26;20062;-38
2024/04/20 03:44:02;;;;;;;10.35;2.83;;;;;;;5.90;100.00;101810.69;5492520;26;19997;-38
2024/04/20 03:46:29;;;;;;;14.17;3.40;;;;;;;5.76;100.00;101789.09;5492597;26;19994;-38
2024/04/20 03:48:54;;;;;;;12.38;2.63;;;;;;;5.84;100.00;101814.03;5492749;26;20373;-38
2024/04/20 03:51:20;;;;;;;12.02;3.00;;;;;;;5.83;100.00;101816.91;5492623;26;19994;-38
2024/04/20 03:53:45;;;;;;;11.93;2.83;;;;;;;5.81;100.00;101814.41;5492730;26;19989;-38
2024/04/20 03:56:10;;;;;;;10.33;2.93;;;;;;;5.84;100.00;101814.03;5492698;26;20062;-38
2024/04/20 03:58:36;;;;;;;15.53;3.00;;;;;;;5.82;100.00;101820.63;5492737;26;19994;-39
2024/04/20 04:01:01;;;;;;;13.27;3.33;;;;;;;5.81;100.00;101824.31;5492928;26;20008;-39
2024/04/20 04:03:28;;;;;;;16.07;3.20;;;;;;;5.73;100.00;101817.13;5492643;26;20006;-39
2024/04/20 04:05:57;;;;;;;16.02;3.22;;;;;;;5.78;100.00;101827.34;5492784;26;20012;-39
2024/04/20 04:08:26;;;;;;;13.18;2.72;;;;;;;5.71;100.00;101813.78;5492462;26;19998;-39
2024/04/20 04:10:52;;;;;;;10.90;3.25;;;;;;;5.77;100.00;101823.00;5492816;26;20272;-39
2024/04/20 04:13:17;;;;;;;;;;;;;;;5.86;100.00;101825.47;5492888;26;19998;-39
2024/04/20 04:15:43;;;;;;;13.07;2.95;;;;;;;5.72;100.00;101820.00;5492716;26;19930;-38
2024/04/20 04:18:14;;;;;;;14.30;2.88;;;;;;;5.75;100.00;101825.81;5492352;26;19990;-38
2024/04/20 04:20:39;;;;;;;12.02;2.55;;;;;;;5.71;100.00;101824.53;5461481;26;19994;-38
2024/04/20 04:23:05;;;;;;;13.40;3.30;;;;;;;5.66;100.00;101816.13;5492281;26;20005;-38
2024/04/20 04:25:31;;;;;;;12.00;2.88;;;;;;;5.77;100.00;101850.66;5492287;26;19990;-38
2024/04/20 04:27:57;;;;;;;15.75;3.03;;;;;;;5.75;100.00;101849.16;5492240;26;20399;-38
2024/04/20 04:30:22;;;;;;;11.82;3.03;;;;;;;5.76;100.00;101848.13;5492263;26;20427;-38
2024/04/20 04:32:48;;;;;;;10.13;2.28;;;;;;;5.74;100.00;101856.38;5459566;26;20007;-38
2024/04/20 04:35:13;;;;;;;15.63;3.20;;;;;;;5.74;100.00;101855.53;5492469;26;20030;-39
2024/04/20 04:37:39;;;;;;;13.98;3.10;;;;;;;5.71;100.00;101855.88;5491525;26;20005;-39
2024/04/20 04:40:05;;;;;;;16.17;2.75;;;;;;;5.74;100.00;101864.41;5492122;26;20012;-39
2024/04/20 04:42:30;;;;;;;10.68;3.13;;;;;;;5.75;100.00;101876.81;5491525;26;20002;-39
2024/04/20 04:44:56;;;;;;;11.03;2.30;;;;;;;5.66;100.00;101859.06;5491587;26;20384;-39
2024/04/20 04:47:22;;;;;;;;;;;;;;;5.86;100.00;101876.47;5492270;26;20066;-39
2024/04/20 04:49:47;;;;;;;12.90;2.60;;;;;;;5.79;100.00;101883.53;5491429;26;19923;-39
2024/04/20 04:52:13;;;;;;;13.37;3.07;;;;;;;5.79;100.00;101888.88;5491450;26;20018;-39
2024/04/20 04:54:38;;;;;;;10.10;3.00;;;;;;;5.77;100.00;101877.50;5491406;26;20362;-39
2024/04/20 04:57:04;;;;;;;10.93;2.70;;;;;;;5.80;100.00;101890.56;5491933;26;19992;-39
2024/04/20 04:59:29;;;;;;;10.80;2.85;;;;;;;5.78;100.00;101889.91;5491794;26;19993;-39
2024/04/20 05:01:55;;;;;;;11.80;2.83;;;;;;;5.84;100.00;101899.94;5491258;26;20488;-39
2024/04/20 05:04:20;;;;;;;11.40;2.67;;;;;;;5.81;100.00;101894.94;5491519;26;20311;-39
2024/04/20 05:06:46;;;;;;;9.87;2.47;;;;;;;5.88;100.00;101903.13;5491415;26;19998;-39
2024/04/20 05:09:12;;;;;;;12.13;3.28;;;;;;;5.88;100.00;101903.94;5491945;26;20351;-39
2024/04/20 05:11:38;;;;;;;10.85;2.65;;;;;;;5.96;100.00;101915.72;5490999;26;20375;-39
2024/04/20 05:14:03;;;;;;;9.30;2.30;;;;;;;5.97;100.00;101915.53;5491542;26;20010;-39
2024/04/20 05:16:29;;;;;;;8.80;2.30;;;;;;;5.98;100.00;101921.75;5490942;26;19990;-39
2024/04/20 05:18:54;;;;;;;13.30;3.00;;;;;;;5.98;100.00;101914.50;5491149;26;20005;-39
2024/04/20 05:21:19;;;;;;;9.53;2.60;;;;;;;5.97;100.00;101920.91;5491199;26;20002;-39
2024/04/20 05:23:45;;;;;;;13.20;2.70;;;;;;;6.00;100.00;101928.59;5491691;26;20001;-39
2024/04/20 05:26:11;;;;;;;9.00;2.55;;;;;;;5.98;100.00;101927.09;5491430;26;19994;-39
2024/04/20 05:28:36;;;;;;;11.33;3.00;;;;;;;5.99;100.00;101929.59;5490879;26;20388;-39
2024/04/20 05:31:02;;;;;;;11.43;2.60;;;;;;;5.95;100.00;101928.28;5491724;26;20337;-39
2024/04/20 05:33:27;;;;;;;11.60;2.65;;;;;;;6.03;100.00;101940.84;5491004;26;20239;-39
2024/04/20 05:35:52;;;;;;;9.80;3.07;;;;;;;6.02;100.00;101931.13;5491632;26;19990;-39
2024/04/20 05:38:18;;;;;;;11.13;2.37;;;;;;;6.00;100.00;101935.81;5490594;26;19997;-39
2024/04/20 05:40:43;;;;;;;8.20;2.57;;;;;;;6.06;100.00;101944.03;5491394;26;20399;-39
2024/04/20 05:43:08;;;;;;;10.20;2.63;;;;;;;6.04;100.00;101946.03;5490635;26;20351;-39
2024/04/20 05:45:36;;;;;;;10.63;2.47;;;;;;;6.04;100.00;101959.47;5458816;26;20376;-39
2024/04/20 05:48:02;;;;;;;13.93;2.70;;;;;;;6.05;100.00;101965.66;5490512;26;19986;-39
2024/04/20 05:50:28;;;;;;;12.68;2.35;;;;;;;6.04;100.00;101964.84;5491101;26;19994;-39
2024/04/20 05:52:53;;;;;;;12.07;2.72;;;;;;;6.06;100.00;101970.03;5490521;26;20023;-39
2024/04/20 05:55:19;;;;;;;18.90;3.47;;;;;;;6.04;100.00;101972.88;5491147;26;19986;-39
2024/04/20 05:57:44;;;;;;;10.23;2.47;;;;;;;6.04;100.00;101975.56;5491628;26;20001;-39
2024/04/20 06:00:10;;;;;;;12.83;2.77;;;;;;;6.03;100.00;101975.75;5490921;26;20062;-39
2024/04/20 06:02:35;;;;;;;9.15;2.45;;;;;;;6.05;100.00;101982.63;5489903;26;20066;-39
2024/04/20 06:05:03;;;;;;;7.90;1.70;;;;;;;6.02;100.00;101974.91;5491058;26;19990;-39
2024/04/20 06:07:32;;;;;;;8.10;2.45;;;;;;;6.03;100.00;101978.44;5490909;26;20009;-39
2024/04/20 06:09:57;;;;;;;9.50;2.17;;;;;;;6.15;100.00;101990.50;5490831;26;19990;-39
2024/04/20 06:12:23;;;;;;;11.18;2.30;;;;;;;6.19;100.00;101989.09;5490784;26;20311;-39
2024/04/20 06:14:48;;;;;;;11.10;2.90;;;;;;;6.22;100.00;101993.31;5490747;26;20066;-39
2024/04/20 06:17:14;;;;;;;9.50;2.13;;;;;;;6.23;100.00;102003.88;5490693;26;20009;-39
2024/04/20 06:19:39;;;;;;;13.02;2.72;;;;;;;6.11;100.00;101975.72;5491295;26;20054;-39
2024/04/20 06:22:05;;;;;;;9.52;2.05;;;;;;;6.22;100.00;101982.56;5490354;26;19994;-39
2024/04/20 06:24:31;;;;;;;11.32;2.15;;;;;;;6.29;100.00;102005.00;5490721;26;20005;-39
2024/04/20 06:26:56;;;;;;;8.10;1.80;;;;;;;6.31;100.00;102003.84;5490270;26;20009;-39
2024/04/20 06:29:23;;;;;;;8.10;2.00;;;;;;;6.29;100.00;102005.84;5491551;26;20030;-39
2024/04/20 06:31:50;;;;;;;9.60;2.20;;;;;;;6.35;100.00;102010.56;5490244;26;20074;-39
2024/04/20 06:34:15;;;;;;;7.28;2.50;;;;;;;6.43;100.00;102021.25;5490353;26;20062;-39
2024/04/20 06:36:41;;;;;;;8.93;2.63;;;;;;;6.42;100.00;102008.00;5490112;26;20307;-39
2024/04/20 06:39:07;;;;;;;10.60;2.58;;;;;;;6.54;100.00;102020.03;5489961;26;19994;-39
2024/04/20 06:41:32;;;;;;;5.97;1.83;;;;;;;6.58;100.00;102026.72;5490001;26;19990;-39
2024/04/20 06:43:59;;;;;;;9.97;1.83;;;;;;;6.60;100.00;102013.13;5490397;26;20095;-39
2024/04/20 06:46:27;;;;;;;11.13;2.45;;;;;;;6.68;100.00;102026.50;5489930;26;19998;-39
2024/04/20 06:48:56;;;;;;;9.90;2.10;;;;;;;6.74;100.00;102025.81;5490138;26;20345;-39
2024/04/20 06:51:22;;;;;;;12.07;2.78;;;;;;;6.83;100.00;102034.63;5489637;26;20039;-39
2024/04/20 06:53:47;;;;;;;8.88;1.70;;;;;;;6.85;100.00;102038.84;5489960;26;20006;-39
2024/04/20 06:56:12;;;;;;;7.50;1.80;;;;;;;6.97;100.00;102047.31;5489774;26;20002;-39
2024/04/20 06:58:41;;;;;;;9.77;2.53;;;;;;;7.05;100.00;102043.75;5490414;26;20006;-39
2024/04/20 07:01:10;;;;;;;9.65;2.38;;;;;;;7.15;100.00;102055.94;5490541;26;19998;-39
2024/04/20 07:03:36;;;;;;;8.35;1.88;;;;;;;7.17;100.00;102053.06;5489703;26;19990;-39
2024/04/20 07:06:01;;;;;;;8.45;1.88;;;;;;;7.18;100.00;102060.16;5490113;26;19994;-40
2024/04/20 07:08:31;;;;;;;6.67;1.53;;;;;;;7.14;100.00;102045.38;5489922;26;20000;-39
2024/04/20 07:11:00;;;;;;;5.15;1.70;;;;;;;7.17;100.00;102053.06;5490466;26;20263;-39
2024/04/20 07:13:30;;;;;;;7.57;1.65;;;;;;;7.27;100.00;102064.47;5490040;26;20066;-39
2024/04/20 07:15:55;;;;;;;8.35;2.00;;;;;;;7.36;100.00;102075.97;5491908;26;19990;-39
2024/04/20 07:18:20;;;;;;;9.23;2.40;;;;;;;7.54;100.00;102083.75;5493377;26;20410;-39
2024/04/20 07:20:46;;;;;;;8.27;1.67;;;;;;;7.71;100.00;102086.13;5493673;26;20275;-39
2024/04/20 07:23:11;;;;;;;5.87;1.77;;;;;;;7.82;100.00;102084.84;5493362;26;20000;-39
2024/04/20 07:25:37;;;;;;;7.95;2.10;;;;;;;7.86;100.00;102086.19;5493861;26;19998;-38
2024/04/20 07:28:02;;;;;;;6.33;1.70;;;;;;;7.92;100.00;102096.22;5493576;26;19998;-39
2024/04/20 07:30:27;;;;;;;9.27;2.97;;;;;;;7.98;100.00;102097.31;5493231;26;19994;-39
2024/04/20 07:32:53;;;;;;;7.67;2.00;;;;;;;7.94;100.00;102088.78;5493110;26;20002;-39
2024/04/20 07:35:18;;;;;;;6.43;1.87;;;;;;;7.93;100.00;102103.25;5492859;26;20439;-38
2024/04/20 07:37:43;;;;;;;8.43;1.93;;;;;;;7.84;100.00;102109.75;5492430;26;20002;-38
2024/04/20 07:40:09;;;;;;;5.10;1.50;;;;;;;7.88;100.00;102105.66;5493149;26;20208;-38
2024/04/20 07:42:34;;;;;;;7.70;1.60;;;;;;;7.90;100.00;102105.47;5492695;26;19998;-38
2024/04/20 07:45:00;;;;;;;8.07;2.33;;;;;;;7.91;100.00;102116.09;5493039;26;19994;-38
2024/04/20 07:47:25;;;;;;;10.17;2.53;;;;;;;7.97;100.00;102099.19;5492470;26;20027;-38
2024/04/20 07:49:50;;;;;;;11.40;2.27;;;;;;;8.16;100.00;102116.69;5493176;26;20343;-38
2024/04/20 07:52:16;;;;;;;6.00;1.43;;;;;;;8.17;100.00;102114.81;5492459;26;20453;-38
2024/04/20 07:54:42;;;;;;;7.15;2.13;;;;;;;8.11;100.00;102120.97;5492711;26;19994;-38
2024/04/20 07:57:07;;;;;;;5.82;1.52;;;;;;;8.00;100.00;102120.38;5492806;26;20345;-38
2024/04/20 07:59:35;;;;;;;8.13;1.87;;;;;;;7.85;100.00;102127.56;5492784;26;20001;-38
2024/04/20 08:02:01;;;;;;;6.47;1.48;;;;;;;7.75;100.00;102117.03;5492704;26;20014;-38
2024/04/20 08:04:26;;;;;;;9.50;2.33;;;;;;;7.64;100.00;102130.94;5493089;26;20005;-38
2024/04/20 08:06:52;;;;;;;7.75;2.47;;;;;;;7.44;100.00;102141.34;5492460;26;19998;-38
2024/04/20 08:09:17;;;;;;;7.23;1.50;;;;;;;7.21;100.00;102146.69;5492922;26;19994;-38
2024/04/20 08:11:42;;;;;;;7.00;1.63;;;;;;;7.04;100.00;102147.00;5492817;26;19994;-39
2024/04/20 08:14:08;;;;;;;8.03;2.20;;;;;;;6.87;100.00;102143.53;5493013;26;20001;-39
2024/04/20 08:16:33;;;;;;;8.87;2.50;;;;;;;6.86;100.00;102152.59;5492175;26;20005;-39
2024/04/20 08:18:58;;;;;;;10.33;1.70;;;;;;;7.06;100.00;102153.00;5492986;26;20211;-39
2024/04/20 08:21:24;;;;;;;8.83;2.00;;;;;;;7.19;100.00;102156.81;5492697;26;20009;-39
2024/04/20 08:23:50;;;;;;;7.97;2.37;;;;;;;7.16;100.00;102148.25;5492983;26;20430;-39
2024/04/20 08:26:15;;;;;;;7.30;1.90;;;;;;;7.30;100.00;102149.34;5491870;26;20070;-39
2024/04/20 08:28:41;;;;;;;6.40;1.77;;;;;;;7.33;100.00;102157.91;5492767;26;20442;-38
2024/04/20 08:31:06;;;;;;;9.15;2.33;;;;;;;7.47;100.00;102178.69;5492705;26;19994;-38
2024/04/20 08:33:31;;;;;;;11.73;2.80;;;;;;;7.66;100.00;102176.53;5491664;26;20457;-38
2024/04/20 08:35:57;;;;;;;9.30;2.13;;;;;;;7.85;100.00;102173.34;5491891;26;20002;-39
2024/04/20 08:38:22;;;;;;;6.20;2.07;;;;;;;7.83;100.00;102155.72;5491847;26;19990;-39
2024/04/20 08:40:57;;;;;;;10.23;2.37;;;;;;;7.98;100.00;102189.75;5492201;26;20449;-39
2024/04/20 08:43:23;;;;;;;5.95;1.42;;;;;;;8.15;100.00;102184.22;5492144;26;20216;-39
2024/04/20 08:45:50;;;;;;;8.77;1.90;;;;;;;8.39;100.00;102184.00;5491812;26;19990;-39
2024/04/20 08:48:17;;;;;;;6.90;2.15;;;;;;;8.54;100.00;102185.88;5491545;26;20334;-39
2024/04/20 08:50:44;;;;;;;7.65;1.60;;;;;;;8.82;100.00;102189.63;5491642;26;19994;-39
2024/04/20 08:53:10;;;;;;;6.97;1.60;;;;;;;9.11;100.00;102187.91;5491318;26;19994;-39
2024/04/20 08:55:35;;;;;;;5.13;1.90;;;;;;;9.30;100.00;102195.41;5491923;26;19990;-39
2024/04/20 08:58:01;;;;;;;8.53;2.00;;;;;;;9.22;100.00;102191.00;5491297;26;20004;-39
2024/04/20 09:00:32;;;;;;;5.70;1.40;;;;;;;9.03;100.00;102188.88;5491721;26;20419;-39
2024/04/20 09:02:59;;;;;;;9.23;2.28;;;;;;;8.88;100.00;102190.72;5491867;26;20426;-38
2024/04/20 09:05:25;;;;;;;5.75;1.42;;;;;;;8.75;100.00;102202.19;5491494;26;20005;-39
2024/04/20 09:07:50;;;;;;;6.18;1.65;;;;;;;8.76;100.00;102198.47;5491183;26;20354;-38
2024/04/20 09:10:16;;;;;;;4.72;1.63;;;;;;;9.09;100.00;102198.91;5491391;26;19995;-38
2024/04/20 09:12:41;;;;;;;5.70;1.50;;;;;;;9.35;100.00;102190.28;5491425;26;20335;-39
2024/04/20 09:15:07;;;;;;;7.17;1.50;;;;;;;9.50;100.00;102179.44;5491408;26;20501;-38
2024/04/20 09:17:33;;;;;;;4.35;1.60;;;;;;;9.71;100.00;102194.81;5491213;26;20002;-39
2024/04/20 09:19:59;;;;;;;4.60;1.60;;;;;;;9.93;100.00;102188.41;5491306;26;19998;-38
2024/04/20 09:22:26;;;;;;;4.50;1.48;;;;;;;10.16;100.00;102190.06;5491338;26;20443;-38
2024/04/20 09:25:02;;;;;;;7.07;1.40;;;;;;;10.42;100.00;102193.00;5491761;26;20510;-38
2024/04/20 09:27:28;;;;;;;6.15;1.92;;;;;;;9.92;100.00;102199.41;5491178;26;20066;-38
2024/04/20 09:29:53;;;;;;;5.38;1.60;;;;;;;10.31;100.00;102197.06;5491740;26;19994;-39
2024/04/20 09:32:22;;;;;;;7.57;1.67;;;;;;;10.36;100.00;102193.78;5491094;26;20012;-38
2024/04/20 09:34:48;;;;;;;4.80;1.45;;;;;;;10.13;100.00;102199.38;5491586;26;20009;-38
2024/04/20 09:37:13;;;;;;;5.28;1.58;;;;;;;9.99;100.00;102206.53;5490197;26;20002;-38
2024/04/20 09:39:39;;;;;;;4.73;1.20;;;;;;;9.65;100.00;102233.41;5490909;26;19998;-38
2024/04/20 09:42:06;;;;;;;3.88;1.30;;;;;;;9.26;100.00;102227.34;5490581;26;19997;-39
2024/04/20 09:44:33;;;;;;;2.97;0.95;;;;;;;9.08;100.00;102232.31;5491131;26;20379;-39
2024/04/20 09:46:58;;;;;;;4.80;1.05;;;;;;;8.60;100.00;102226.44;5464566;26;20071;-39
2024/04/20 09:49:31;;;;;;;3.25;1.00;;;;;;;8.66;100.00;102224.88;5454397;26;20003;-39
2024/04/20 09:52:12;;;;;;;4.50;1.00;;;;;;;8.82;100.00;102224.69;5454242;26;20006;-38
2024/04/20 09:55:04;;;;;;;5.47;1.25;;;;;;;8.80;100.00;102217.81;5454476;26;20003;-38
2024/04/20 09:57:34;;;;;;;4.95;1.20;;;;;;;8.74;100.00;102224.78;5453504;26;20323;-38
2024/04/20 10:00:01;;;;;;;5.47;1.58;;;;;;;8.80;100.00;102218.66;5454225;26;19995;-38
2024/04/20 10:02:28;;;;;;;4.55;1.38;;;;;;;8.95;100.00;102221.34;5454406;26;19999;-38
2024/04/20 10:04:58;;;;;;;8.23;1.60;;;;;;;9.32;100.00;102216.81;5453996;26;20009;-38
2024/04/20 10:07:28;;;;;;;7.70;2.03;;;;;;;9.68;100.00;102198.75;5454138;26;20002;-39
2024/04/20 10:09:55;;;;;;;6.55;1.45;;;;;;;9.98;100.00;102204.88;5454011;26;20096;-39
2024/04/20 10:12:20;;;;;;;5.43;1.58;;;;;;;10.23;100.00;102193.63;5483221;26;20006;-39
2024/04/20 10:14:46;;;;;;;6.85;1.50;;;;;;;10.56;100.00;102189.34;5490312;26;20075;-39
2024/04/20 10:17:27;;;;;;;5.63;1.40;;;;;;;10.81;100.00;102200.53;5486938;26;20010;-39
2024/04/20 10:19:55;;;;;;;5.53;1.83;;;;;;;11.09;100.00;102203.19;5458495;26;19999;-38
2024/04/20 10:22:20;;;;;;;6.70;1.50;;;;;;;11.37;100.00;102194.13;5453527;26;20002;-38
2024/04/20 10:24:57;;;;;;;7.23;1.40;;;;;;;11.34;100.00;102186.41;5454709;26;20005;-38
2024/04/20 10:27:33;;;;;;;9.48;2.20;;;;;;;11.21;100.00;102198.00;5456196;26;20236;-38
2024/04/20 10:30:24;;;;;;;8.23;1.87;;;;;;;10.89;100.00;102207.66;5491157;26;20006;-38
2024/04/20 10:33:02;;;;;;;8.05;2.30;;;;;;;10.52;100.00;102212.41;5483466;26;20317;-38
2024/04/20 10:35:27;;;;;;;4.90;1.40;;;;;;;10.09;100.00;102232.41;5490995;26;20001;-39
2024/04/20 10:38:02;;;;;;;5.43;1.20;;;;;;;9.51;100.00;102227.84;5460162;26;20399;-39
2024/04/20 10:40:31;;;;;;;4.13;1.00;;;;;;;8.94;100.00;102231.31;5453808;26;20003;-39
2024/04/20 10:43:20;;;;;;;4.28;1.13;;;;;;;8.85;100.00;102232.41;5454294;26;19995;-39
2024/04/20 10:45:46;;;;;;;5.10;1.27;;;;;;;8.80;100.00;102223.22;5453590;26;20035;-39
2024/04/20 10:48:15;;;;;;;3.75;1.10;;;;;;;8.81;100.00;102217.63;5453666;26;20006;-39
2024/04/20 10:50:44;;;;;;;5.60;1.60;;;;;;;8.83;100.00;102210.16;5453862;26;20130;-39
2024/04/20 10:53:10;;;;;;;3.78;1.10;;;;;;;9.10;100.00;102218.63;5453140;26;20067;-39
2024/04/20 10:55:37;;;;;;;;;;;;;;;9.37;100.00;102220.66;5454354;26;20003;-39
2024/04/20 10:58:05;;;;;;;6.57;1.35;;;;;;;9.52;100.00;102212.50;5453375;26;20349;-39
2024/04/20 11:00:30;;;;;;;7.68;1.52;;;;;;;9.76;100.00;102217.56;5453304;26;20009;-39
2024/04/20 11:02:56;;;;;;;5.90;1.58;;;;;;;10.10;100.00;102212.44;5453223;26;20442;-39
2024/04/20 11:05:21;;;;;;;4.43;1.40;;;;;;;10.53;100.00;102195.13;5485255;26;19994;-38
2024/04/20 11:08:00;;;;;;;6.43;1.92;;;;;;;10.89;100.00;102191.41;5486407;26;19997;-39
2024/04/20 11:10:27;;;;;;;6.38;2.65;;;;;;;11.09;100.00;102216.72;5488626;26;19994;-39
2024/04/20 11:13:03;;;;;;;7.25;1.55;;;;;;;10.95;100.00;102209.56;5490097;26;20001;-39
2024/04/20 11:15:30;;;;;;;5.53;1.20;;;;;;;10.86;100.00;102218.88;5489750;26;19998;-39
2024/04/20 11:17:55;;;;;;;6.25;1.50;;;;;;;10.67;100.00;102212.31;5489456;26;19994;-39
2024/04/20 11:20:21;;;;;;;6.13;1.60;;;;;;;10.60;100.00;102224.97;5488484;26;20453;-39